sensor_id;sensor_type;location;lat;lon;timestamp;P1;durP1;ratioP1;P2;durP2;ratioP2
77409;SDS011;66481;51.332;22.804;2024-03-08T00:03:33;70.50;;;31.23;;
77409;SDS011;66481;51.332;22.804;2024-03-08T00:07:35;68.72;;;31.52;;
77409;SDS011;66481;51.332;22.804;2024-03-08T00:11:36;72.07;;;30.23;;
77409;SDS011;66481;51.332;22.804;2024-03-08T00:15:38;67.53;;;31.42;;
77409;SDS011;66481;51.332;22.804;2024-03-08T00:19:39;74.35;;;32.22;;
77409;SDS011;66481;51.332;22.804;2024-03-08T00:23:42;75.32;;;32.33;;
77409;SDS011;66481;51.332;22.804;2024-03-08T00:27:43;78.63;;;32.13;;
77409;SDS011;66481;51.332;22.804;2024-03-08T00:31:44;71.05;;;31.02;;
77409;SDS011;66481;51.332;22.804;2024-03-08T00:35:45;67.18;;;29.75;;
77409;SDS011;66481;51.332;22.804;2024-03-08T00:39:46;68.07;;;31.30;;
77409;SDS011;66481;51.332;22.804;2024-03-08T00:43:47;64.60;;;28.70;;
77409;SDS011;66481;51.332;22.804;2024-03-08T00:47:48;73.78;;;31.83;;
77409;SDS011;66481;51.332;22.804;2024-03-08T00:51:49;70.15;;;29.50;;
77409;SDS011;66481;51.332;22.804;2024-03-08T00:55:51;78.50;;;33.55;;
77409;SDS011;66481;51.332;22.804;2024-03-08T00:59:52;73.80;;;31.45;;
77409;SDS011;66481;51.332;22.804;2024-03-08T01:03:53;77.50;;;33.30;;
77409;SDS011;66481;51.332;22.804;2024-03-08T01:07:54;81.70;;;34.90;;
77409;SDS011;66481;51.332;22.804;2024-03-08T01:11:55;73.40;;;32.25;;
77409;SDS011;66481;51.332;22.804;2024-03-08T01:15:56;77.72;;;31.50;;
77409;SDS011;66481;51.332;22.804;2024-03-08T01:19:57;79.22;;;32.13;;
77409;SDS011;66481;51.332;22.804;2024-03-08T01:23:59;68.55;;;29.85;;
77409;SDS011;66481;51.332;22.804;2024-03-08T01:28:00;70.63;;;33.28;;
77409;SDS011;66481;51.332;22.804;2024-03-08T01:32:03;82.25;;;34.78;;
77409;SDS011;66481;51.332;22.804;2024-03-08T01:36:05;78.05;;;31.33;;
77409;SDS011;66481;51.332;22.804;2024-03-08T01:40:07;73.40;;;30.75;;
77409;SDS011;66481;51.332;22.804;2024-03-08T01:44:09;64.47;;;29.65;;
77409;SDS011;66481;51.332;22.804;2024-03-08T01:48:10;95.50;;;36.00;;
77409;SDS011;66481;51.332;22.804;2024-03-08T01:52:12;89.15;;;33.78;;
77409;SDS011;66481;51.332;22.804;2024-03-08T01:56:14;78.10;;;33.33;;
77409;SDS011;66481;51.332;22.804;2024-03-08T02:00:16;71.47;;;30.42;;
77409;SDS011;66481;51.332;22.804;2024-03-08T02:04:19;71.72;;;32.30;;
77409;SDS011;66481;51.332;22.804;2024-03-08T02:08:22;70.15;;;32.00;;
77409;SDS011;66481;51.332;22.804;2024-03-08T02:12:23;69.32;;;32.35;;
77409;SDS011;66481;51.332;22.804;2024-03-08T02:16:24;70.88;;;30.48;;
77409;SDS011;66481;51.332;22.804;2024-03-08T02:20:28;72.97;;;31.63;;
77409;SDS011;66481;51.332;22.804;2024-03-08T02:24:29;69.70;;;30.17;;
77409;SDS011;66481;51.332;22.804;2024-03-08T02:28:31;80.57;;;34.05;;
77409;SDS011;66481;51.332;22.804;2024-03-08T02:32:33;76.88;;;33.72;;
77409;SDS011;66481;51.332;22.804;2024-03-08T02:36:34;81.38;;;34.65;;
77409;SDS011;66481;51.332;22.804;2024-03-08T02:40:35;86.00;;;34.88;;
77409;SDS011;66481;51.332;22.804;2024-03-08T02:44:36;71.32;;;31.67;;
77409;SDS011;66481;51.332;22.804;2024-03-08T02:48:38;84.78;;;35.53;;
77409;SDS011;66481;51.332;22.804;2024-03-08T02:52:40;80.05;;;37.60;;
77409;SDS011;66481;51.332;22.804;2024-03-08T02:56:42;81.03;;;34.03;;
77409;SDS011;66481;51.332;22.804;2024-03-08T03:00:43;84.65;;;36.03;;
77409;SDS011;66481;51.332;22.804;2024-03-08T03:04:44;92.45;;;38.08;;
77409;SDS011;66481;51.332;22.804;2024-03-08T03:08:45;78.82;;;33.40;;
77409;SDS011;66481;51.332;22.804;2024-03-08T03:12:47;82.30;;;35.85;;
77409;SDS011;66481;51.332;22.804;2024-03-08T03:16:49;74.78;;;31.48;;
77409;SDS011;66481;51.332;22.804;2024-03-08T03:20:50;68.70;;;31.13;;
77409;SDS011;66481;51.332;22.804;2024-03-08T03:24:51;69.75;;;29.85;;
77409;SDS011;66481;51.332;22.804;2024-03-08T03:28:54;60.28;;;26.35;;
77409;SDS011;66481;51.332;22.804;2024-03-08T03:32:55;64.30;;;26.85;;
77409;SDS011;66481;51.332;22.804;2024-03-08T03:36:59;69.97;;;28.60;;
77409;SDS011;66481;51.332;22.804;2024-03-08T03:41:01;68.95;;;28.17;;
77409;SDS011;66481;51.332;22.804;2024-03-08T03:45:10;65.80;;;27.05;;
77409;SDS011;66481;51.332;22.804;2024-03-08T03:49:11;58.63;;;26.10;;
77409;SDS011;66481;51.332;22.804;2024-03-08T03:53:13;61.95;;;28.65;;
77409;SDS011;66481;51.332;22.804;2024-03-08T03:57:14;67.35;;;28.13;;
77409;SDS011;66481;51.332;22.804;2024-03-08T04:01:15;65.57;;;28.23;;
77409;SDS011;66481;51.332;22.804;2024-03-08T04:05:16;68.45;;;28.30;;
77409;SDS011;66481;51.332;22.804;2024-03-08T04:09:17;58.20;;;26.35;;
77409;SDS011;66481;51.332;22.804;2024-03-08T04:13:23;58.72;;;27.63;;
77409;SDS011;66481;51.332;22.804;2024-03-08T04:17:24;61.88;;;28.45;;
77409;SDS011;66481;51.332;22.804;2024-03-08T04:21:25;58.30;;;26.33;;
77409;SDS011;66481;51.332;22.804;2024-03-08T04:25:26;55.65;;;25.33;;
77409;SDS011;66481;51.332;22.804;2024-03-08T04:29:27;61.22;;;27.38;;
77409;SDS011;66481;51.332;22.804;2024-03-08T04:33:29;70.90;;;28.63;;
77409;SDS011;66481;51.332;22.804;2024-03-08T04:37:32;62.65;;;27.92;;
77409;SDS011;66481;51.332;22.804;2024-03-08T04:41:33;54.10;;;25.58;;
77409;SDS011;66481;51.332;22.804;2024-03-08T04:45:34;65.25;;;27.63;;
77409;SDS011;66481;51.332;22.804;2024-03-08T04:49:35;54.03;;;25.08;;
77409;SDS011;66481;51.332;22.804;2024-03-08T04:53:37;65.57;;;26.52;;
77409;SDS011;66481;51.332;22.804;2024-03-08T04:57:38;61.90;;;26.38;;
77409;SDS011;66481;51.332;22.804;2024-03-08T05:01:39;58.60;;;26.40;;
77409;SDS011;66481;51.332;22.804;2024-03-08T05:05:41;63.55;;;26.08;;
77409;SDS011;66481;51.332;22.804;2024-03-08T05:09:42;64.80;;;27.63;;
77409;SDS011;66481;51.332;22.804;2024-03-08T05:13:43;69.82;;;30.30;;
77409;SDS011;66481;51.332;22.804;2024-03-08T05:21:58;76.28;;;31.90;;
77409;SDS011;66481;51.332;22.804;2024-03-08T05:25:59;77.25;;;31.75;;
77409;SDS011;66481;51.332;22.804;2024-03-08T05:30:02;83.38;;;35.03;;
77409;SDS011;66481;51.332;22.804;2024-03-08T05:34:04;77.85;;;33.13;;
77409;SDS011;66481;51.332;22.804;2024-03-08T05:38:06;74.75;;;34.92;;
77409;SDS011;66481;51.332;22.804;2024-03-08T05:42:07;69.43;;;33.35;;
77409;SDS011;66481;51.332;22.804;2024-03-08T05:46:15;71.65;;;32.42;;
77409;SDS011;66481;51.332;22.804;2024-03-08T05:50:17;72.65;;;32.22;;
77409;SDS011;66481;51.332;22.804;2024-03-08T05:54:19;74.78;;;32.42;;
77409;SDS011;66481;51.332;22.804;2024-03-08T05:58:23;79.75;;;39.22;;
77409;SDS011;66481;51.332;22.804;2024-03-08T06:02:25;78.07;;;36.33;;
77409;SDS011;66481;51.332;22.804;2024-03-08T06:06:26;69.70;;;33.53;;
77409;SDS011;66481;51.332;22.804;2024-03-08T06:10:27;70.85;;;35.10;;
77409;SDS011;66481;51.332;22.804;2024-03-08T06:14:29;73.03;;;35.70;;
77409;SDS011;66481;51.332;22.804;2024-03-08T06:18:31;70.13;;;34.80;;
77409;SDS011;66481;51.332;22.804;2024-03-08T06:22:32;60.35;;;33.22;;
77409;SDS011;66481;51.332;22.804;2024-03-08T06:26:33;59.47;;;31.98;;
77409;SDS011;66481;51.332;22.804;2024-03-08T06:30:35;58.90;;;30.35;;
77409;SDS011;66481;51.332;22.804;2024-03-08T06:34:36;54.25;;;28.67;;
77409;SDS011;66481;51.332;22.804;2024-03-08T06:38:40;51.42;;;29.08;;
77409;SDS011;66481;51.332;22.804;2024-03-08T06:42:43;56.25;;;29.05;;
77409;SDS011;66481;51.332;22.804;2024-03-08T06:46:44;52.53;;;29.67;;
77409;SDS011;66481;51.332;22.804;2024-03-08T06:50:46;55.22;;;31.90;;
77409;SDS011;66481;51.332;22.804;2024-03-08T06:54:48;57.17;;;32.47;;
77409;SDS011;66481;51.332;22.804;2024-03-08T06:58:49;51.83;;;28.73;;
77409;SDS011;66481;51.332;22.804;2024-03-08T07:02:52;50.28;;;28.60;;
77409;SDS011;66481;51.332;22.804;2024-03-08T07:06:54;46.70;;;29.42;;
77409;SDS011;66481;51.332;22.804;2024-03-08T07:10:58;49.30;;;30.08;;
77409;SDS011;66481;51.332;22.804;2024-03-08T07:14:59;52.50;;;29.58;;
77409;SDS011;66481;51.332;22.804;2024-03-08T07:19:01;48.20;;;30.05;;
77409;SDS011;66481;51.332;22.804;2024-03-08T07:23:03;45.22;;;29.05;;
77409;SDS011;66481;51.332;22.804;2024-03-08T07:27:05;46.28;;;30.00;;
77409;SDS011;66481;51.332;22.804;2024-03-08T07:31:07;44.83;;;29.55;;
77409;SDS011;66481;51.332;22.804;2024-03-08T07:35:17;42.92;;;26.88;;
77409;SDS011;66481;51.332;22.804;2024-03-08T07:39:20;43.58;;;27.38;;
77409;SDS011;66481;51.332;22.804;2024-03-08T07:43:24;72.85;;;48.03;;
77409;SDS011;66481;51.332;22.804;2024-03-08T07:47:28;40.50;;;26.65;;
77409;SDS011;66481;51.332;22.804;2024-03-08T07:51:31;41.88;;;26.45;;
77409;SDS011;66481;51.332;22.804;2024-03-08T07:55:35;43.03;;;25.13;;
77409;SDS011;66481;51.332;22.804;2024-03-08T07:59:37;41.00;;;25.90;;
77409;SDS011;66481;51.332;22.804;2024-03-08T08:03:38;42.50;;;27.15;;
77409;SDS011;66481;51.332;22.804;2024-03-08T08:07:39;34.40;;;23.85;;
77409;SDS011;66481;51.332;22.804;2024-03-08T08:11:44;32.78;;;21.95;;
77409;SDS011;66481;51.332;22.804;2024-03-08T08:15:45;28.25;;;18.60;;
77409;SDS011;66481;51.332;22.804;2024-03-08T08:19:46;29.02;;;20.13;;
77409;SDS011;66481;51.332;22.804;2024-03-08T08:23:48;33.88;;;21.77;;
77409;SDS011;66481;51.332;22.804;2024-03-08T08:27:49;32.53;;;21.35;;
77409;SDS011;66481;51.332;22.804;2024-03-08T08:31:50;34.25;;;23.50;;
77409;SDS011;66481;51.332;22.804;2024-03-08T08:35:51;34.20;;;22.65;;
77409;SDS011;66481;51.332;22.804;2024-03-08T08:43:55;31.40;;;20.65;;
77409;SDS011;66481;51.332;22.804;2024-03-08T08:47:56;30.05;;;20.70;;
77409;SDS011;66481;51.332;22.804;2024-03-08T08:52:00;30.52;;;20.42;;
77409;SDS011;66481;51.332;22.804;2024-03-08T08:56:01;26.48;;;19.00;;
77409;SDS011;66481;51.332;22.804;2024-03-08T09:00:03;26.17;;;18.17;;
77409;SDS011;66481;51.332;22.804;2024-03-08T09:04:22;25.08;;;16.88;;
77409;SDS011;66481;51.332;22.804;2024-03-08T09:08:23;24.88;;;17.65;;
77409;SDS011;66481;51.332;22.804;2024-03-08T09:12:25;22.38;;;14.18;;
77409;SDS011;66481;51.332;22.804;2024-03-08T09:16:27;19.92;;;13.45;;
77409;SDS011;66481;51.332;22.804;2024-03-08T09:20:31;19.73;;;12.98;;
77409;SDS011;66481;51.332;22.804;2024-03-08T09:24:33;21.02;;;12.85;;
77409;SDS011;66481;51.332;22.804;2024-03-08T09:28:34;24.73;;;16.77;;
77409;SDS011;66481;51.332;22.804;2024-03-08T09:32:35;25.65;;;17.17;;
77409;SDS011;66481;51.332;22.804;2024-03-08T09:36:37;24.98;;;16.52;;
77409;SDS011;66481;51.332;22.804;2024-03-08T09:40:40;22.85;;;15.50;;
77409;SDS011;66481;51.332;22.804;2024-03-08T09:44:45;22.58;;;15.15;;
77409;SDS011;66481;51.332;22.804;2024-03-08T09:48:47;22.27;;;14.60;;
77409;SDS011;66481;51.332;22.804;2024-03-08T09:52:49;20.63;;;14.18;;
77409;SDS011;66481;51.332;22.804;2024-03-08T09:56:51;19.83;;;13.35;;
77409;SDS011;66481;51.332;22.804;2024-03-08T10:00:53;19.15;;;10.65;;
77409;SDS011;66481;51.332;22.804;2024-03-08T10:04:57;13.63;;;9.48;;
77409;SDS011;66481;51.332;22.804;2024-03-08T10:08:59;15.73;;;11.23;;
77409;SDS011;66481;51.332;22.804;2024-03-08T10:13:00;15.75;;;9.63;;
77409;SDS011;66481;51.332;22.804;2024-03-08T10:17:01;17.08;;;10.57;;
77409;SDS011;66481;51.332;22.804;2024-03-08T10:25:11;16.63;;;9.25;;
77409;SDS011;66481;51.332;22.804;2024-03-08T10:29:13;16.75;;;10.27;;
77409;SDS011;66481;51.332;22.804;2024-03-08T10:33:16;14.88;;;9.88;;
77409;SDS011;66481;51.332;22.804;2024-03-08T10:37:17;15.27;;;9.90;;
77409;SDS011;66481;51.332;22.804;2024-03-08T10:41:26;15.35;;;10.52;;
77409;SDS011;66481;51.332;22.804;2024-03-08T10:45:37;15.02;;;10.07;;
77409;SDS011;66481;51.332;22.804;2024-03-08T10:49:49;15.85;;;9.70;;
77409;SDS011;66481;51.332;22.804;2024-03-08T10:53:57;15.98;;;9.60;;
77409;SDS011;66481;51.332;22.804;2024-03-08T10:58:00;13.65;;;9.13;;
77409;SDS011;66481;51.332;22.804;2024-03-08T11:02:01;14.98;;;9.50;;
77409;SDS011;66481;51.332;22.804;2024-03-08T11:06:02;15.38;;;9.23;;
77409;SDS011;66481;51.332;22.804;2024-03-08T11:10:04;13.48;;;9.02;;
77409;SDS011;66481;51.332;22.804;2024-03-08T11:14:05;14.25;;;9.05;;
77409;SDS011;66481;51.332;22.804;2024-03-08T11:18:27;15.80;;;10.32;;
77409;SDS011;66481;51.332;22.804;2024-03-08T11:22:29;17.48;;;10.68;;
77409;SDS011;66481;51.332;22.804;2024-03-08T11:26:33;14.00;;;9.05;;
77409;SDS011;66481;51.332;22.804;2024-03-08T11:30:38;13.77;;;8.65;;
77409;SDS011;66481;51.332;22.804;2024-03-08T11:34:41;17.48;;;9.50;;
77409;SDS011;66481;51.332;22.804;2024-03-08T11:38:45;15.95;;;9.65;;
77409;SDS011;66481;51.332;22.804;2024-03-08T11:42:49;14.73;;;8.57;;
77409;SDS011;66481;51.332;22.804;2024-03-08T11:46:52;14.82;;;8.85;;
77409;SDS011;66481;51.332;22.804;2024-03-08T11:51:03;14.52;;;7.93;;
77409;SDS011;66481;51.332;22.804;2024-03-08T11:55:05;15.35;;;8.95;;
77409;SDS011;66481;51.332;22.804;2024-03-08T11:59:10;14.43;;;9.02;;
77409;SDS011;66481;51.332;22.804;2024-03-08T12:03:13;14.18;;;8.95;;
77409;SDS011;66481;51.332;22.804;2024-03-08T12:07:14;13.93;;;7.93;;
77409;SDS011;66481;51.332;22.804;2024-03-08T12:11:19;14.23;;;8.15;;
77409;SDS011;66481;51.332;22.804;2024-03-08T12:15:24;16.02;;;8.82;;
77409;SDS011;66481;51.332;22.804;2024-03-08T12:19:27;15.32;;;8.52;;
77409;SDS011;66481;51.332;22.804;2024-03-08T12:23:28;17.25;;;8.52;;
77409;SDS011;66481;51.332;22.804;2024-03-08T12:27:34;15.88;;;8.73;;
77409;SDS011;66481;51.332;22.804;2024-03-08T12:31:35;14.38;;;7.57;;
77409;SDS011;66481;51.332;22.804;2024-03-08T12:35:36;13.60;;;8.27;;
77409;SDS011;66481;51.332;22.804;2024-03-08T12:39:37;14.88;;;7.60;;
77409;SDS011;66481;51.332;22.804;2024-03-08T12:43:43;16.17;;;8.00;;
77409;SDS011;66481;51.332;22.804;2024-03-08T12:47:51;14.75;;;7.57;;
77409;SDS011;66481;51.332;22.804;2024-03-08T12:51:56;13.93;;;8.38;;
77409;SDS011;66481;51.332;22.804;2024-03-08T12:55:57;14.05;;;8.15;;
77409;SDS011;66481;51.332;22.804;2024-03-08T12:59:59;14.50;;;8.68;;
77409;SDS011;66481;51.332;22.804;2024-03-08T13:04:00;15.75;;;8.07;;
77409;SDS011;66481;51.332;22.804;2024-03-08T13:08:05;14.95;;;8.35;;
77409;SDS011;66481;51.332;22.804;2024-03-08T13:12:12;13.38;;;7.45;;
77409;SDS011;66481;51.332;22.804;2024-03-08T13:16:13;15.18;;;8.60;;
77409;SDS011;66481;51.332;22.804;2024-03-08T13:20:19;15.65;;;8.35;;
77409;SDS011;66481;51.332;22.804;2024-03-08T13:24:22;15.63;;;8.52;;
77409;SDS011;66481;51.332;22.804;2024-03-08T13:28:23;11.63;;;7.45;;
77409;SDS011;66481;51.332;22.804;2024-03-08T13:32:30;14.48;;;8.07;;
77409;SDS011;66481;51.332;22.804;2024-03-08T13:36:32;14.27;;;7.72;;
77409;SDS011;66481;51.332;22.804;2024-03-08T13:40:39;16.30;;;8.38;;
77409;SDS011;66481;51.332;22.804;2024-03-08T13:44:43;14.40;;;6.97;;
77409;SDS011;66481;51.332;22.804;2024-03-08T13:48:46;13.55;;;7.93;;
77409;SDS011;66481;51.332;22.804;2024-03-08T13:52:48;15.18;;;7.45;;
77409;SDS011;66481;51.332;22.804;2024-03-08T13:56:54;14.80;;;8.18;;
77409;SDS011;66481;51.332;22.804;2024-03-08T14:00:55;16.15;;;8.38;;
77409;SDS011;66481;51.332;22.804;2024-03-08T14:04:57;13.73;;;8.30;;
77409;SDS011;66481;51.332;22.804;2024-03-08T14:08:58;29.30;;;13.70;;
77409;SDS011;66481;51.332;22.804;2024-03-08T14:13:00;16.67;;;8.65;;
77409;SDS011;66481;51.332;22.804;2024-03-08T14:17:03;19.13;;;9.38;;
77409;SDS011;66481;51.332;22.804;2024-03-08T14:21:05;18.85;;;9.32;;
77409;SDS011;66481;51.332;22.804;2024-03-08T14:25:06;15.25;;;8.90;;
77409;SDS011;66481;51.332;22.804;2024-03-08T14:29:14;16.98;;;7.72;;
77409;SDS011;66481;51.332;22.804;2024-03-08T14:33:15;14.82;;;7.78;;
77409;SDS011;66481;51.332;22.804;2024-03-08T14:37:17;21.27;;;11.55;;
77409;SDS011;66481;51.332;22.804;2024-03-08T14:41:23;15.63;;;8.43;;
77409;SDS011;66481;51.332;22.804;2024-03-08T14:45:25;17.48;;;8.30;;
77409;SDS011;66481;51.332;22.804;2024-03-08T14:49:27;17.08;;;8.75;;
77409;SDS011;66481;51.332;22.804;2024-03-08T14:53:30;15.68;;;8.82;;
77409;SDS011;66481;51.332;22.804;2024-03-08T14:57:31;16.25;;;8.40;;
77409;SDS011;66481;51.332;22.804;2024-03-08T15:01:33;14.45;;;8.18;;
77409;SDS011;66481;51.332;22.804;2024-03-08T15:05:36;19.98;;;8.68;;
77409;SDS011;66481;51.332;22.804;2024-03-08T15:09:44;15.90;;;8.18;;
77409;SDS011;66481;51.332;22.804;2024-03-08T15:13:45;14.98;;;8.75;;
77409;SDS011;66481;51.332;22.804;2024-03-08T15:17:47;16.52;;;8.68;;
77409;SDS011;66481;51.332;22.804;2024-03-08T15:21:50;13.50;;;8.00;;
77409;SDS011;66481;51.332;22.804;2024-03-08T15:25:51;14.90;;;7.85;;
77409;SDS011;66481;51.332;22.804;2024-03-08T15:29:53;15.18;;;7.72;;
77409;SDS011;66481;51.332;22.804;2024-03-08T15:33:56;13.70;;;8.27;;
77409;SDS011;66481;51.332;22.804;2024-03-08T15:38:07;22.75;;;10.18;;
77409;SDS011;66481;51.332;22.804;2024-03-08T15:42:09;23.00;;;9.80;;
77409;SDS011;66481;51.332;22.804;2024-03-08T15:46:11;27.60;;;13.25;;
77409;SDS011;66481;51.332;22.804;2024-03-08T15:50:14;18.60;;;9.13;;
77409;SDS011;66481;51.332;22.804;2024-03-08T15:54:16;19.00;;;8.38;;
77409;SDS011;66481;51.332;22.804;2024-03-08T15:58:18;17.63;;;8.18;;
77409;SDS011;66481;51.332;22.804;2024-03-08T16:02:19;18.40;;;8.25;;
77409;SDS011;66481;51.332;22.804;2024-03-08T16:06:22;52.35;;;21.98;;
77409;SDS011;66481;51.332;22.804;2024-03-08T16:10:24;21.98;;;10.77;;
77409;SDS011;66481;51.332;22.804;2024-03-08T16:14:26;21.52;;;11.63;;
77409;SDS011;66481;51.332;22.804;2024-03-08T16:18:27;18.00;;;8.32;;
77409;SDS011;66481;51.332;22.804;2024-03-08T16:22:31;19.48;;;9.65;;
77409;SDS011;66481;51.332;22.804;2024-03-08T16:26:34;17.38;;;9.23;;
77409;SDS011;66481;51.332;22.804;2024-03-08T16:30:44;20.90;;;10.45;;
77409;SDS011;66481;51.332;22.804;2024-03-08T16:34:49;35.88;;;13.40;;
77409;SDS011;66481;51.332;22.804;2024-03-08T16:38:52;26.35;;;12.95;;
77409;SDS011;66481;51.332;22.804;2024-03-08T16:42:53;21.58;;;10.60;;
77409;SDS011;66481;51.332;22.804;2024-03-08T16:46:58;46.90;;;19.60;;
77409;SDS011;66481;51.332;22.804;2024-03-08T16:51:00;29.05;;;14.18;;
77409;SDS011;66481;51.332;22.804;2024-03-08T16:55:04;36.42;;;18.20;;
77409;SDS011;66481;51.332;22.804;2024-03-08T16:59:08;28.02;;;14.18;;
77409;SDS011;66481;51.332;22.804;2024-03-08T17:03:11;63.55;;;26.27;;
77409;SDS011;66481;51.332;22.804;2024-03-08T17:07:13;164.23;;;69.22;;
77409;SDS011;66481;51.332;22.804;2024-03-08T17:11:14;64.65;;;29.45;;
77409;SDS011;66481;51.332;22.804;2024-03-08T17:15:16;68.93;;;26.70;;
77409;SDS011;66481;51.332;22.804;2024-03-08T17:19:23;66.60;;;26.92;;
77409;SDS011;66481;51.332;22.804;2024-03-08T17:23:27;55.63;;;23.42;;
77409;SDS011;66481;51.332;22.804;2024-03-08T17:27:28;55.95;;;26.60;;
77409;SDS011;66481;51.332;22.804;2024-03-08T17:31:29;55.08;;;26.85;;
77409;SDS011;66481;51.332;22.804;2024-03-08T17:39:35;54.53;;;24.90;;
77409;SDS011;66481;51.332;22.804;2024-03-08T17:43:39;56.28;;;25.02;;
77409;SDS011;66481;51.332;22.804;2024-03-08T17:47:41;58.33;;;25.10;;
77409;SDS011;66481;51.332;22.804;2024-03-08T17:51:43;62.58;;;26.33;;
77409;SDS011;66481;51.332;22.804;2024-03-08T17:55:46;58.45;;;24.45;;
77409;SDS011;66481;51.332;22.804;2024-03-08T17:59:52;59.33;;;23.77;;
77409;SDS011;66481;51.332;22.804;2024-03-08T18:03:54;56.60;;;23.80;;
77409;SDS011;66481;51.332;22.804;2024-03-08T18:07:56;58.03;;;23.17;;
77409;SDS011;66481;51.332;22.804;2024-03-08T18:11:58;58.00;;;24.25;;
77409;SDS011;66481;51.332;22.804;2024-03-08T18:15:59;57.50;;;26.27;;
77409;SDS011;66481;51.332;22.804;2024-03-08T18:20:01;59.53;;;25.67;;
77409;SDS011;66481;51.332;22.804;2024-03-08T18:24:05;59.92;;;23.80;;
77409;SDS011;66481;51.332;22.804;2024-03-08T18:28:08;54.90;;;24.73;;
77409;SDS011;66481;51.332;22.804;2024-03-08T18:32:16;54.92;;;22.95;;
77409;SDS011;66481;51.332;22.804;2024-03-08T18:36:21;52.20;;;21.88;;
77409;SDS011;66481;51.332;22.804;2024-03-08T18:40:23;51.67;;;24.73;;
77409;SDS011;66481;51.332;22.804;2024-03-08T18:44:25;61.40;;;27.05;;
77409;SDS011;66481;51.332;22.804;2024-03-08T18:48:28;57.45;;;23.05;;
77409;SDS011;66481;51.332;22.804;2024-03-08T18:52:31;57.28;;;27.52;;
77409;SDS011;66481;51.332;22.804;2024-03-08T18:56:35;73.38;;;27.33;;
77409;SDS011;66481;51.332;22.804;2024-03-08T19:00:37;61.72;;;26.90;;
77409;SDS011;66481;51.332;22.804;2024-03-08T19:04:42;56.63;;;23.67;;
77409;SDS011;66481;51.332;22.804;2024-03-08T19:08:44;64.50;;;26.70;;
77409;SDS011;66481;51.332;22.804;2024-03-08T19:12:51;59.00;;;25.70;;
77409;SDS011;66481;51.332;22.804;2024-03-08T19:16:55;62.88;;;28.88;;
77409;SDS011;66481;51.332;22.804;2024-03-08T19:20:57;64.70;;;27.75;;
77409;SDS011;66481;51.332;22.804;2024-03-08T19:24:59;55.03;;;26.48;;
77409;SDS011;66481;51.332;22.804;2024-03-08T19:29:03;57.00;;;26.13;;
77409;SDS011;66481;51.332;22.804;2024-03-08T19:33:05;58.92;;;24.05;;
77409;SDS011;66481;51.332;22.804;2024-03-08T19:37:18;57.80;;;24.35;;
77409;SDS011;66481;51.332;22.804;2024-03-08T19:41:22;55.42;;;23.17;;
77409;SDS011;66481;51.332;22.804;2024-03-08T19:45:25;56.38;;;24.38;;
77409;SDS011;66481;51.332;22.804;2024-03-08T19:49:29;57.70;;;25.35;;
77409;SDS011;66481;51.332;22.804;2024-03-08T19:53:33;64.80;;;25.75;;
77409;SDS011;66481;51.332;22.804;2024-03-08T19:57:36;67.38;;;29.10;;
77409;SDS011;66481;51.332;22.804;2024-03-08T20:01:38;62.08;;;28.50;;
77409;SDS011;66481;51.332;22.804;2024-03-08T20:05:53;73.78;;;30.55;;
77409;SDS011;66481;51.332;22.804;2024-03-08T20:09:55;73.82;;;30.40;;
77409;SDS011;66481;51.332;22.804;2024-03-08T20:14:01;68.25;;;31.38;;
77409;SDS011;66481;51.332;22.804;2024-03-08T20:18:06;81.38;;;34.35;;
77409;SDS011;66481;51.332;22.804;2024-03-08T20:22:09;87.43;;;38.80;;
77409;SDS011;66481;51.332;22.804;2024-03-08T20:26:11;87.95;;;39.28;;
77409;SDS011;66481;51.332;22.804;2024-03-08T20:30:23;88.80;;;37.03;;
77409;SDS011;66481;51.332;22.804;2024-03-08T20:34:29;86.72;;;37.40;;
77409;SDS011;66481;51.332;22.804;2024-03-08T20:38:30;76.25;;;31.33;;
77409;SDS011;66481;51.332;22.804;2024-03-08T20:42:33;71.10;;;29.90;;
77409;SDS011;66481;51.332;22.804;2024-03-08T20:46:34;62.75;;;27.85;;
77409;SDS011;66481;51.332;22.804;2024-03-08T20:50:35;66.07;;;28.35;;
77409;SDS011;66481;51.332;22.804;2024-03-08T20:54:40;65.55;;;28.60;;
77409;SDS011;66481;51.332;22.804;2024-03-08T20:58:43;71.13;;;29.52;;
77409;SDS011;66481;51.332;22.804;2024-03-08T21:02:47;71.75;;;28.27;;
77409;SDS011;66481;51.332;22.804;2024-03-08T21:06:50;66.20;;;27.48;;
77409;SDS011;66481;51.332;22.804;2024-03-08T21:10:52;57.50;;;24.60;;
77409;SDS011;66481;51.332;22.804;2024-03-08T21:14:55;68.15;;;29.00;;
77409;SDS011;66481;51.332;22.804;2024-03-08T21:18:57;71.93;;;31.25;;
77409;SDS011;66481;51.332;22.804;2024-03-08T21:22:59;71.65;;;32.05;;
77409;SDS011;66481;51.332;22.804;2024-03-08T21:26:59;77.15;;;36.33;;
77409;SDS011;66481;51.332;22.804;2024-03-08T21:31:01;84.85;;;31.83;;
77409;SDS011;66481;51.332;22.804;2024-03-08T21:35:04;75.70;;;33.05;;
77409;SDS011;66481;51.332;22.804;2024-03-08T21:39:09;74.70;;;32.72;;
77409;SDS011;66481;51.332;22.804;2024-03-08T21:43:12;73.07;;;31.15;;
77409;SDS011;66481;51.332;22.804;2024-03-08T21:47:13;79.47;;;34.55;;
77409;SDS011;66481;51.332;22.804;2024-03-08T21:51:15;86.65;;;36.78;;
77409;SDS011;66481;51.332;22.804;2024-03-08T21:55:20;69.57;;;29.60;;
77409;SDS011;66481;51.332;22.804;2024-03-08T21:59:25;70.32;;;29.10;;
77409;SDS011;66481;51.332;22.804;2024-03-08T22:03:27;75.35;;;33.17;;
77409;SDS011;66481;51.332;22.804;2024-03-08T22:07:32;67.85;;;31.45;;
77409;SDS011;66481;51.332;22.804;2024-03-08T22:11:36;73.55;;;29.65;;
77409;SDS011;66481;51.332;22.804;2024-03-08T22:15:40;63.22;;;27.88;;
77409;SDS011;66481;51.332;22.804;2024-03-08T22:19:46;68.70;;;28.20;;
77409;SDS011;66481;51.332;22.804;2024-03-08T22:23:47;68.03;;;29.67;;
77409;SDS011;66481;51.332;22.804;2024-03-08T22:27:49;71.85;;;32.17;;
77409;SDS011;66481;51.332;22.804;2024-03-08T22:31:50;68.70;;;31.60;;
77409;SDS011;66481;51.332;22.804;2024-03-08T22:35:53;73.88;;;32.13;;
77409;SDS011;66481;51.332;22.804;2024-03-08T22:39:54;75.13;;;31.77;;
77409;SDS011;66481;51.332;22.804;2024-03-08T22:43:56;73.88;;;34.05;;
77409;SDS011;66481;51.332;22.804;2024-03-08T22:47:59;73.90;;;33.20;;
77409;SDS011;66481;51.332;22.804;2024-03-08T22:52:00;83.07;;;37.55;;
77409;SDS011;66481;51.332;22.804;2024-03-08T22:56:05;79.10;;;34.65;;
77409;SDS011;66481;51.332;22.804;2024-03-08T23:00:08;78.55;;;31.30;;
77409;SDS011;66481;51.332;22.804;2024-03-08T23:04:21;66.15;;;31.75;;
77409;SDS011;66481;51.332;22.804;2024-03-08T23:08:23;71.45;;;29.92;;
77409;SDS011;66481;51.332;22.804;2024-03-08T23:12:30;71.30;;;33.00;;
77409;SDS011;66481;51.332;22.804;2024-03-08T23:16:33;85.78;;;35.65;;
77409;SDS011;66481;51.332;22.804;2024-03-08T23:20:34;76.65;;;37.95;;
77409;SDS011;66481;51.332;22.804;2024-03-08T23:24:36;87.10;;;38.65;;
77409;SDS011;66481;51.332;22.804;2024-03-08T23:28:49;80.68;;;35.88;;
77409;SDS011;66481;51.332;22.804;2024-03-08T23:32:51;68.25;;;31.65;;
77409;SDS011;66481;51.332;22.804;2024-03-08T23:36:54;75.07;;;33.75;;
77409;SDS011;66481;51.332;22.804;2024-03-08T23:40:55;77.25;;;34.53;;